This is the latest recevied weather packets stored in our database for station/object HS5NMF. If no packets are shown the sender has not sent any weather packets the latest 10 day(s).
| Time | Temp. | Humidity | Pressure | Rain* | Wind** | Luminosity | Snow |
|---|---|---|---|---|---|---|---|
| 1777901872 | 29.44° C | 85% | 978 hPa | - | - | 0 W/m² | - |
| 1777901547 | 28.89° C | 87% | 978 hPa | - | - | 0 W/m² | - |
| 1777901224 | 28.89° C | 86% | 978 hPa | - | - | 0 W/m² | - |
| 1777901087 | 28.89° C | 86% | 978 hPa | - | - | 0 W/m² | - |
| 1777900900 | 28.89° C | 86% | 978 hPa | - | - | 0 W/m² | - |
| 1777900578 | 29.44° C | 84% | 978 hPa | - | - | 0 W/m² | - |
| 1777900253 | 28.89° C | 84% | 977 hPa | - | - | 0 W/m² | - |
| 1777900108 | 30° C | 80% | 977 hPa | - | - | 0 W/m² | - |
| 1777900086 | 29.44° C | 80% | 977 hPa | - | - | 0 W/m² | - |
| 1777899928 | 30° C | 80% | 977 hPa | - | - | 0 W/m² | - |
| 1777899604 | 29.44° C | 80% | 977 hPa | - | - | 0 W/m² | - |
| 1777899282 | 30.56° C | 76% | 977 hPa | - | - | 0 W/m² | - |
| 1777898959 | 30.56° C | 74% | 977 hPa | - | - | 0 W/m² | - |
| 1777898632 | 31.11° C | 71% | 976 hPa | - | - | 0 W/m² | - |
| 1777898309 | 31.11° C | 72% | 976 hPa | - | - | 0 W/m² | - |
| 1777897986 | 30.56° C | 73% | 976 hPa | - | - | 0 W/m² | - |
| 1777897663 | 30° C | 76% | 976 hPa | - | - | 0 W/m² | - |
| 1777897338 | 30° C | 76% | 976 hPa | - | - | 0 W/m² | - |
| 1777897230 | 30° C | 77% | 976 hPa | - | - | 0 W/m² | - |
| 1777897013 | 30° C | 77% | 976 hPa | - | - | 0 W/m² | - |
| 1777896688 | 30° C | 79% | 976 hPa | - | - | 0 W/m² | - |
| 1777896364 | 29.44° C | 82% | 976 hPa | - | - | 0 W/m² | - |
| 1777896041 | 29.44° C | 82% | 976 hPa | - | - | 0 W/m² | - |
| 1777895718 | 28.89° C | 84% | 976 hPa | - | - | 0 W/m² | - |
| 1777895393 | 29.44° C | 83% | 976 hPa | - | - | 0 W/m² | - |
* Rain since midnight (hover to see other rain measurements)
** Current wind speed in m/s (hover to see current wind gust speed)